sensor_id;sensor_type;location;lat;lon;timestamp;P1;durP1;ratioP1;P2;durP2;ratioP2
72408;SDS011;60402;48.082;11.628;2023-09-18T00:01:21;6.75;;;3.08;;
72408;SDS011;60402;48.082;11.628;2023-09-18T00:04:07;6.90;;;2.80;;
72408;SDS011;60402;48.082;11.628;2023-09-18T00:06:52;8.32;;;3.10;;
72408;SDS011;60402;48.082;11.628;2023-09-18T00:09:38;6.22;;;2.80;;
72408;SDS011;60402;48.082;11.628;2023-09-18T00:12:23;4.80;;;2.30;;
72408;SDS011;60402;48.082;11.628;2023-09-18T00:15:09;6.05;;;2.58;;
72408;SDS011;60402;48.082;11.628;2023-09-18T00:17:55;6.15;;;2.90;;
72408;SDS011;60402;48.082;11.628;2023-09-18T00:20:40;5.90;;;2.65;;
72408;SDS011;60402;48.082;11.628;2023-09-18T00:23:27;5.20;;;2.70;;
72408;SDS011;60402;48.082;11.628;2023-09-18T00:26:12;5.65;;;2.55;;
72408;SDS011;60402;48.082;11.628;2023-09-18T00:28:58;4.88;;;2.47;;
72408;SDS011;60402;48.082;11.628;2023-09-18T00:31:44;7.75;;;2.80;;
72408;SDS011;60402;48.082;11.628;2023-09-18T00:34:29;8.70;;;2.55;;
72408;SDS011;60402;48.082;11.628;2023-09-18T00:37:17;6.05;;;2.55;;
72408;SDS011;60402;48.082;11.628;2023-09-18T00:40:03;4.90;;;2.53;;
72408;SDS011;60402;48.082;11.628;2023-09-18T00:42:50;5.07;;;2.45;;
72408;SDS011;60402;48.082;11.628;2023-09-18T00:45:38;7.13;;;2.95;;
72408;SDS011;60402;48.082;11.628;2023-09-18T00:48:29;5.63;;;2.50;;
72408;SDS011;60402;48.082;11.628;2023-09-18T00:51:15;4.18;;;2.42;;
72408;SDS011;60402;48.082;11.628;2023-09-18T00:54:01;5.25;;;2.60;;
72408;SDS011;60402;48.082;11.628;2023-09-18T00:56:47;5.93;;;2.60;;
72408;SDS011;60402;48.082;11.628;2023-09-18T00:59:33;5.13;;;2.70;;
72408;SDS011;60402;48.082;11.628;2023-09-18T01:02:19;5.13;;;2.25;;
72408;SDS011;60402;48.082;11.628;2023-09-18T01:05:06;5.10;;;2.40;;
72408;SDS011;60402;48.082;11.628;2023-09-18T01:07:51;9.35;;;2.90;;
72408;SDS011;60402;48.082;11.628;2023-09-18T01:10:40;5.57;;;2.25;;
72408;SDS011;60402;48.082;11.628;2023-09-18T01:13:35;4.55;;;2.33;;
72408;SDS011;60402;48.082;11.628;2023-09-18T01:16:27;5.93;;;2.85;;
72408;SDS011;60402;48.082;11.628;2023-09-18T01:19:45;5.65;;;2.53;;
72408;SDS011;60402;48.082;11.628;2023-09-18T01:22:32;8.10;;;2.58;;
72408;SDS011;60402;48.082;11.628;2023-09-18T01:25:17;4.60;;;2.22;;
72408;SDS011;60402;48.082;11.628;2023-09-18T01:28:03;4.88;;;1.88;;
72408;SDS011;60402;48.082;11.628;2023-09-18T01:30:49;4.90;;;2.40;;
72408;SDS011;60402;48.082;11.628;2023-09-18T01:33:34;4.90;;;2.25;;
72408;SDS011;60402;48.082;11.628;2023-09-18T01:36:23;3.88;;;1.88;;
72408;SDS011;60402;48.082;11.628;2023-09-18T01:39:10;5.07;;;2.40;;
72408;SDS011;60402;48.082;11.628;2023-09-18T01:42:01;5.72;;;1.98;;
72408;SDS011;60402;48.082;11.628;2023-09-18T01:44:49;4.45;;;2.00;;
72408;SDS011;60402;48.082;11.628;2023-09-18T01:47:35;4.85;;;2.22;;
72408;SDS011;60402;48.082;11.628;2023-09-18T01:50:21;5.63;;;2.25;;
72408;SDS011;60402;48.082;11.628;2023-09-18T01:53:07;6.82;;;2.25;;
72408;SDS011;60402;48.082;11.628;2023-09-18T01:55:53;6.10;;;2.22;;
72408;SDS011;60402;48.082;11.628;2023-09-18T01:58:38;5.40;;;2.17;;
72408;SDS011;60402;48.082;11.628;2023-09-18T02:01:24;5.60;;;2.10;;
72408;SDS011;60402;48.082;11.628;2023-09-18T02:04:10;4.63;;;1.83;;
72408;SDS011;60402;48.082;11.628;2023-09-18T02:06:55;5.20;;;2.30;;
72408;SDS011;60402;48.082;11.628;2023-09-18T02:09:42;7.53;;;2.63;;
72408;SDS011;60402;48.082;11.628;2023-09-18T02:12:28;6.35;;;2.35;;
72408;SDS011;60402;48.082;11.628;2023-09-18T02:15:14;4.35;;;1.90;;
72408;SDS011;60402;48.082;11.628;2023-09-18T02:18:02;5.57;;;2.25;;
72408;SDS011;60402;48.082;11.628;2023-09-18T02:20:47;7.05;;;3.28;;
72408;SDS011;60402;48.082;11.628;2023-09-18T02:23:34;5.53;;;2.00;;
72408;SDS011;60402;48.082;11.628;2023-09-18T02:26:20;3.83;;;2.17;;
72408;SDS011;60402;48.082;11.628;2023-09-18T02:29:08;3.92;;;1.75;;
72408;SDS011;60402;48.082;11.628;2023-09-18T02:31:59;5.05;;;2.42;;
72408;SDS011;60402;48.082;11.628;2023-09-18T02:34:44;5.93;;;2.17;;
72408;SDS011;60402;48.082;11.628;2023-09-18T02:37:30;7.85;;;2.20;;
72408;SDS011;60402;48.082;11.628;2023-09-18T02:40:15;5.47;;;2.08;;
72408;SDS011;60402;48.082;11.628;2023-09-18T02:43:01;5.82;;;1.92;;
72408;SDS011;60402;48.082;11.628;2023-09-18T02:45:50;5.05;;;2.13;;
72408;SDS011;60402;48.082;11.628;2023-09-18T02:48:36;5.43;;;2.13;;
72408;SDS011;60402;48.082;11.628;2023-09-18T02:51:22;6.20;;;2.28;;
72408;SDS011;60402;48.082;11.628;2023-09-18T02:54:08;4.97;;;2.38;;
72408;SDS011;60402;48.082;11.628;2023-09-18T02:56:54;6.00;;;2.30;;
72408;SDS011;60402;48.082;11.628;2023-09-18T02:59:40;4.10;;;1.85;;
72408;SDS011;60402;48.082;11.628;2023-09-18T03:02:25;7.00;;;2.35;;
72408;SDS011;60402;48.082;11.628;2023-09-18T03:05:11;4.40;;;1.90;;
72408;SDS011;60402;48.082;11.628;2023-09-18T03:07:57;7.07;;;2.10;;
72408;SDS011;60402;48.082;11.628;2023-09-18T03:10:42;5.20;;;2.15;;
72408;SDS011;60402;48.082;11.628;2023-09-18T03:13:29;6.07;;;2.20;;
72408;SDS011;60402;48.082;11.628;2023-09-18T03:16:15;4.95;;;2.05;;
72408;SDS011;60402;48.082;11.628;2023-09-18T03:19:01;5.47;;;2.38;;
72408;SDS011;60402;48.082;11.628;2023-09-18T03:21:48;5.97;;;2.33;;
72408;SDS011;60402;48.082;11.628;2023-09-18T03:24:34;4.53;;;1.90;;
72408;SDS011;60402;48.082;11.628;2023-09-18T03:27:20;4.60;;;2.10;;
72408;SDS011;60402;48.082;11.628;2023-09-18T03:30:05;5.53;;;2.50;;
72408;SDS011;60402;48.082;11.628;2023-09-18T03:32:52;6.25;;;2.00;;
72408;SDS011;60402;48.082;11.628;2023-09-18T03:35:46;5.40;;;2.10;;
72408;SDS011;60402;48.082;11.628;2023-09-18T03:38:36;6.32;;;2.30;;
72408;SDS011;60402;48.082;11.628;2023-09-18T03:41:22;4.35;;;2.08;;
72408;SDS011;60402;48.082;11.628;2023-09-18T03:44:07;6.35;;;2.15;;
72408;SDS011;60402;48.082;11.628;2023-09-18T03:46:55;4.40;;;1.70;;
72408;SDS011;60402;48.082;11.628;2023-09-18T03:49:40;6.60;;;2.17;;
72408;SDS011;60402;48.082;11.628;2023-09-18T03:52:26;5.80;;;2.60;;
72408;SDS011;60402;48.082;11.628;2023-09-18T03:55:12;5.78;;;2.00;;
72408;SDS011;60402;48.082;11.628;2023-09-18T03:57:58;5.97;;;2.05;;
72408;SDS011;60402;48.082;11.628;2023-09-18T04:00:44;4.05;;;2.13;;
72408;SDS011;60402;48.082;11.628;2023-09-18T04:03:29;5.57;;;2.00;;
72408;SDS011;60402;48.082;11.628;2023-09-18T04:06:15;4.55;;;2.25;;
72408;SDS011;60402;48.082;11.628;2023-09-18T04:09:01;4.78;;;2.10;;
72408;SDS011;60402;48.082;11.628;2023-09-18T04:11:47;5.07;;;2.10;;
72408;SDS011;60402;48.082;11.628;2023-09-18T04:14:33;6.25;;;2.30;;
72408;SDS011;60402;48.082;11.628;2023-09-18T04:17:18;6.53;;;1.90;;
72408;SDS011;60402;48.082;11.628;2023-09-18T04:20:06;5.10;;;2.10;;
72408;SDS011;60402;48.082;11.628;2023-09-18T04:23:16;6.72;;;2.30;;
72408;SDS011;60402;48.082;11.628;2023-09-18T04:26:10;8.48;;;2.17;;
72408;SDS011;60402;48.082;11.628;2023-09-18T04:28:59;7.43;;;2.20;;
72408;SDS011;60402;48.082;11.628;2023-09-18T04:31:46;5.22;;;2.03;;
72408;SDS011;60402;48.082;11.628;2023-09-18T04:34:32;4.80;;;2.17;;
72408;SDS011;60402;48.082;11.628;2023-09-18T04:37:18;5.88;;;2.00;;
72408;SDS011;60402;48.082;11.628;2023-09-18T04:40:04;5.57;;;1.85;;
72408;SDS011;60402;48.082;11.628;2023-09-18T04:42:55;5.55;;;2.40;;
72408;SDS011;60402;48.082;11.628;2023-09-18T04:45:40;5.55;;;2.15;;
72408;SDS011;60402;48.082;11.628;2023-09-18T04:48:28;5.10;;;1.88;;
72408;SDS011;60402;48.082;11.628;2023-09-18T04:51:13;4.85;;;2.30;;
72408;SDS011;60402;48.082;11.628;2023-09-18T04:53:59;5.45;;;2.20;;
72408;SDS011;60402;48.082;11.628;2023-09-18T04:56:45;5.43;;;1.95;;
72408;SDS011;60402;48.082;11.628;2023-09-18T04:59:31;5.70;;;2.17;;
72408;SDS011;60402;48.082;11.628;2023-09-18T05:02:17;6.32;;;2.35;;
72408;SDS011;60402;48.082;11.628;2023-09-18T05:05:02;6.78;;;2.15;;
72408;SDS011;60402;48.082;11.628;2023-09-18T05:07:49;6.13;;;2.20;;
72408;SDS011;60402;48.082;11.628;2023-09-18T05:10:34;3.78;;;2.00;;
72408;SDS011;60402;48.082;11.628;2023-09-18T05:13:21;5.18;;;1.98;;
72408;SDS011;60402;48.082;11.628;2023-09-18T05:16:06;4.22;;;2.20;;
72408;SDS011;60402;48.082;11.628;2023-09-18T05:18:52;4.45;;;2.00;;
72408;SDS011;60402;48.082;11.628;2023-09-18T05:21:37;6.85;;;2.20;;
72408;SDS011;60402;48.082;11.628;2023-09-18T05:24:23;7.22;;;2.70;;
72408;SDS011;60402;48.082;11.628;2023-09-18T05:27:17;6.55;;;2.53;;
72408;SDS011;60402;48.082;11.628;2023-09-18T05:30:03;5.78;;;2.63;;
72408;SDS011;60402;48.082;11.628;2023-09-18T05:32:50;6.55;;;2.33;;
72408;SDS011;60402;48.082;11.628;2023-09-18T05:39:30;5.85;;;2.33;;
72408;SDS011;60402;48.082;11.628;2023-09-18T05:42:16;5.50;;;2.25;;
72408;SDS011;60402;48.082;11.628;2023-09-18T05:45:02;4.82;;;2.42;;
72408;SDS011;60402;48.082;11.628;2023-09-18T05:47:49;6.38;;;2.03;;
72408;SDS011;60402;48.082;11.628;2023-09-18T05:50:35;6.28;;;2.47;;
72408;SDS011;60402;48.082;11.628;2023-09-18T05:53:21;7.30;;;1.95;;
72408;SDS011;60402;48.082;11.628;2023-09-18T05:56:07;5.30;;;2.42;;
72408;SDS011;60402;48.082;11.628;2023-09-18T05:58:54;5.78;;;2.90;;
72408;SDS011;60402;48.082;11.628;2023-09-18T06:01:40;5.50;;;2.65;;
72408;SDS011;60402;48.082;11.628;2023-09-18T06:04:26;6.13;;;2.38;;
72408;SDS011;60402;48.082;11.628;2023-09-18T06:07:12;6.93;;;2.03;;
72408;SDS011;60402;48.082;11.628;2023-09-18T06:09:58;6.65;;;2.60;;
72408;SDS011;60402;48.082;11.628;2023-09-18T06:12:44;5.68;;;2.10;;
72408;SDS011;60402;48.082;11.628;2023-09-18T06:15:32;4.82;;;2.08;;
72408;SDS011;60402;48.082;11.628;2023-09-18T06:18:18;5.57;;;2.35;;
72408;SDS011;60402;48.082;11.628;2023-09-18T06:21:07;6.43;;;2.00;;
72408;SDS011;60402;48.082;11.628;2023-09-18T06:23:52;6.00;;;2.10;;
72408;SDS011;60402;48.082;11.628;2023-09-18T06:26:38;5.60;;;2.25;;
72408;SDS011;60402;48.082;11.628;2023-09-18T06:29:24;6.85;;;2.17;;
72408;SDS011;60402;48.082;11.628;2023-09-18T06:32:09;5.78;;;2.03;;
72408;SDS011;60402;48.082;11.628;2023-09-18T06:34:55;6.43;;;1.70;;
72408;SDS011;60402;48.082;11.628;2023-09-18T06:37:42;4.75;;;1.90;;
72408;SDS011;60402;48.082;11.628;2023-09-18T06:40:28;6.60;;;1.98;;
72408;SDS011;60402;48.082;11.628;2023-09-18T06:43:14;7.03;;;2.17;;
72408;SDS011;60402;48.082;11.628;2023-09-18T06:45:59;9.00;;;2.58;;
72408;SDS011;60402;48.082;11.628;2023-09-18T06:48:45;5.07;;;1.77;;
72408;SDS011;60402;48.082;11.628;2023-09-18T06:51:34;6.03;;;2.00;;
72408;SDS011;60402;48.082;11.628;2023-09-18T06:54:20;4.82;;;2.00;;
72408;SDS011;60402;48.082;11.628;2023-09-18T06:57:06;7.13;;;2.05;;
72408;SDS011;60402;48.082;11.628;2023-09-18T06:59:52;7.13;;;2.67;;
72408;SDS011;60402;48.082;11.628;2023-09-18T07:02:38;8.02;;;2.47;;
72408;SDS011;60402;48.082;11.628;2023-09-18T07:05:23;4.95;;;2.08;;
72408;SDS011;60402;48.082;11.628;2023-09-18T07:08:09;5.78;;;2.00;;
72408;SDS011;60402;48.082;11.628;2023-09-18T07:10:57;7.65;;;2.35;;
72408;SDS011;60402;48.082;11.628;2023-09-18T07:13:43;7.00;;;2.42;;
72408;SDS011;60402;48.082;11.628;2023-09-18T07:16:29;6.18;;;2.30;;
72408;SDS011;60402;48.082;11.628;2023-09-18T07:19:14;6.75;;;2.88;;
72408;SDS011;60402;48.082;11.628;2023-09-18T07:22:02;8.68;;;2.88;;
72408;SDS011;60402;48.082;11.628;2023-09-18T07:24:48;8.88;;;2.58;;
72408;SDS011;60402;48.082;11.628;2023-09-18T07:27:33;6.03;;;2.25;;
72408;SDS011;60402;48.082;11.628;2023-09-18T07:30:19;7.05;;;2.38;;
72408;SDS011;60402;48.082;11.628;2023-09-18T07:33:07;5.63;;;2.58;;
72408;SDS011;60402;48.082;11.628;2023-09-18T07:35:52;7.78;;;2.25;;
72408;SDS011;60402;48.082;11.628;2023-09-18T07:38:38;6.70;;;2.83;;
72408;SDS011;60402;48.082;11.628;2023-09-18T07:41:24;8.32;;;2.55;;
72408;SDS011;60402;48.082;11.628;2023-09-18T07:44:10;5.30;;;2.25;;
72408;SDS011;60402;48.082;11.628;2023-09-18T07:46:56;7.43;;;2.33;;
72408;SDS011;60402;48.082;11.628;2023-09-18T07:49:41;8.35;;;2.33;;
72408;SDS011;60402;48.082;11.628;2023-09-18T07:52:27;5.82;;;1.70;;
72408;SDS011;60402;48.082;11.628;2023-09-18T07:55:13;5.53;;;1.90;;
72408;SDS011;60402;48.082;11.628;2023-09-18T07:58:00;4.72;;;2.13;;
72408;SDS011;60402;48.082;11.628;2023-09-18T08:00:45;5.97;;;1.98;;
72408;SDS011;60402;48.082;11.628;2023-09-18T08:03:32;6.18;;;1.95;;
72408;SDS011;60402;48.082;11.628;2023-09-18T08:06:18;4.90;;;2.50;;
72408;SDS011;60402;48.082;11.628;2023-09-18T08:09:07;6.68;;;2.25;;
72408;SDS011;60402;48.082;11.628;2023-09-18T08:11:55;6.20;;;2.15;;
72408;SDS011;60402;48.082;11.628;2023-09-18T08:14:46;8.15;;;2.22;;
72408;SDS011;60402;48.082;11.628;2023-09-18T08:17:32;5.45;;;2.03;;
72408;SDS011;60402;48.082;11.628;2023-09-18T08:20:17;9.77;;;2.65;;
72408;SDS011;60402;48.082;11.628;2023-09-18T08:23:03;4.75;;;2.03;;
72408;SDS011;60402;48.082;11.628;2023-09-18T08:25:50;6.78;;;2.20;;
72408;SDS011;60402;48.082;11.628;2023-09-18T08:28:42;5.93;;;2.10;;
72408;SDS011;60402;48.082;11.628;2023-09-18T08:31:29;4.78;;;2.33;;
72408;SDS011;60402;48.082;11.628;2023-09-18T08:34:16;6.32;;;1.85;;
72408;SDS011;60402;48.082;11.628;2023-09-18T08:37:02;5.45;;;2.17;;
72408;SDS011;60402;48.082;11.628;2023-09-18T08:39:48;5.72;;;2.50;;
72408;SDS011;60402;48.082;11.628;2023-09-18T08:42:34;6.78;;;2.40;;
72408;SDS011;60402;48.082;11.628;2023-09-18T08:48:08;6.32;;;2.05;;
72408;SDS011;60402;48.082;11.628;2023-09-18T08:50:54;5.22;;;2.10;;
72408;SDS011;60402;48.082;11.628;2023-09-18T08:53:41;5.70;;;2.60;;
72408;SDS011;60402;48.082;11.628;2023-09-18T08:56:26;7.10;;;2.42;;
72408;SDS011;60402;48.082;11.628;2023-09-18T08:59:13;6.78;;;2.30;;
72408;SDS011;60402;48.082;11.628;2023-09-18T09:01:59;5.53;;;2.10;;
72408;SDS011;60402;48.082;11.628;2023-09-18T09:04:45;6.07;;;2.30;;
72408;SDS011;60402;48.082;11.628;2023-09-18T09:07:30;7.28;;;2.33;;
72408;SDS011;60402;48.082;11.628;2023-09-18T09:10:17;5.63;;;2.28;;
72408;SDS011;60402;48.082;11.628;2023-09-18T09:13:03;7.78;;;2.40;;
72408;SDS011;60402;48.082;11.628;2023-09-18T09:15:48;5.63;;;2.30;;
72408;SDS011;60402;48.082;11.628;2023-09-18T09:18:36;5.97;;;2.60;;
72408;SDS011;60402;48.082;11.628;2023-09-18T09:21:40;6.75;;;2.10;;
72408;SDS011;60402;48.082;11.628;2023-09-18T09:24:38;5.40;;;2.20;;
72408;SDS011;60402;48.082;11.628;2023-09-18T09:27:28;9.23;;;2.33;;
72408;SDS011;60402;48.082;11.628;2023-09-18T09:30:24;5.18;;;2.30;;
72408;SDS011;60402;48.082;11.628;2023-09-18T09:33:11;7.95;;;2.30;;
72408;SDS011;60402;48.082;11.628;2023-09-18T09:35:57;6.18;;;2.63;;
72408;SDS011;60402;48.082;11.628;2023-09-18T09:38:43;6.63;;;2.00;;
72408;SDS011;60402;48.082;11.628;2023-09-18T09:41:29;6.72;;;2.75;;
72408;SDS011;60402;48.082;11.628;2023-09-18T09:44:16;4.10;;;2.00;;
72408;SDS011;60402;48.082;11.628;2023-09-18T09:47:05;5.72;;;2.28;;
72408;SDS011;60402;48.082;11.628;2023-09-18T09:49:51;6.95;;;2.70;;
72408;SDS011;60402;48.082;11.628;2023-09-18T09:52:49;9.00;;;2.40;;
72408;SDS011;60402;48.082;11.628;2023-09-18T09:55:36;6.25;;;2.38;;
72408;SDS011;60402;48.082;11.628;2023-09-18T09:58:26;6.93;;;2.05;;
72408;SDS011;60402;48.082;11.628;2023-09-18T10:01:17;7.22;;;2.20;;
72408;SDS011;60402;48.082;11.628;2023-09-18T10:04:11;9.75;;;2.45;;
72408;SDS011;60402;48.082;11.628;2023-09-18T10:07:01;10.57;;;2.38;;
72408;SDS011;60402;48.082;11.628;2023-09-18T10:09:54;11.40;;;3.17;;
72408;SDS011;60402;48.082;11.628;2023-09-18T10:12:40;6.43;;;1.95;;
72408;SDS011;60402;48.082;11.628;2023-09-18T10:15:27;8.77;;;3.20;;
72408;SDS011;60402;48.082;11.628;2023-09-18T10:18:26;5.93;;;2.10;;
72408;SDS011;60402;48.082;11.628;2023-09-18T10:21:17;6.35;;;2.42;;
72408;SDS011;60402;48.082;11.628;2023-09-18T10:24:14;6.35;;;2.72;;
72408;SDS011;60402;48.082;11.628;2023-09-18T10:27:05;9.65;;;2.58;;
72408;SDS011;60402;48.082;11.628;2023-09-18T10:29:51;6.78;;;2.00;;
72408;SDS011;60402;48.082;11.628;2023-09-18T10:32:40;7.03;;;2.00;;
72408;SDS011;60402;48.082;11.628;2023-09-18T10:35:26;5.82;;;2.00;;
72408;SDS011;60402;48.082;11.628;2023-09-18T10:38:12;7.00;;;2.10;;
72408;SDS011;60402;48.082;11.628;2023-09-18T10:40:58;8.20;;;2.05;;
72408;SDS011;60402;48.082;11.628;2023-09-18T10:43:45;7.72;;;1.98;;
72408;SDS011;60402;48.082;11.628;2023-09-18T10:46:32;6.82;;;1.70;;
72408;SDS011;60402;48.082;11.628;2023-09-18T10:49:19;10.25;;;2.17;;
72408;SDS011;60402;48.082;11.628;2023-09-18T10:52:06;4.85;;;1.90;;
72408;SDS011;60402;48.082;11.628;2023-09-18T10:54:58;6.45;;;2.22;;
72408;SDS011;60402;48.082;11.628;2023-09-18T10:57:51;7.97;;;2.33;;
72408;SDS011;60402;48.082;11.628;2023-09-18T11:00:37;6.93;;;1.80;;
72408;SDS011;60402;48.082;11.628;2023-09-18T11:03:23;8.43;;;2.28;;
72408;SDS011;60402;48.082;11.628;2023-09-18T11:06:13;9.90;;;2.20;;
72408;SDS011;60402;48.082;11.628;2023-09-18T11:09:01;10.57;;;1.95;;
72408;SDS011;60402;48.082;11.628;2023-09-18T11:12:01;6.90;;;1.75;;
72408;SDS011;60402;48.082;11.628;2023-09-18T11:14:49;6.32;;;1.90;;
72408;SDS011;60402;48.082;11.628;2023-09-18T11:17:36;9.38;;;2.20;;
72408;SDS011;60402;48.082;11.628;2023-09-18T11:20:25;7.18;;;1.90;;
72408;SDS011;60402;48.082;11.628;2023-09-18T11:25:58;12.15;;;2.35;;
72408;SDS011;60402;48.082;11.628;2023-09-18T11:28:49;11.27;;;2.65;;
72408;SDS011;60402;48.082;11.628;2023-09-18T11:31:41;9.25;;;2.25;;
72408;SDS011;60402;48.082;11.628;2023-09-18T11:34:30;8.85;;;2.42;;
72408;SDS011;60402;48.082;11.628;2023-09-18T11:37:24;9.73;;;2.75;;
72408;SDS011;60402;48.082;11.628;2023-09-18T11:40:29;10.48;;;2.90;;
72408;SDS011;60402;48.082;11.628;2023-09-18T11:43:26;8.38;;;3.10;;
72408;SDS011;60402;48.082;11.628;2023-09-18T11:46:19;7.28;;;2.65;;
72408;SDS011;60402;48.082;11.628;2023-09-18T11:49:12;8.00;;;2.55;;
72408;SDS011;60402;48.082;11.628;2023-09-18T11:51:59;7.85;;;2.28;;
72408;SDS011;60402;48.082;11.628;2023-09-18T11:54:45;6.60;;;2.10;;
72408;SDS011;60402;48.082;11.628;2023-09-18T11:57:35;5.43;;;1.52;;
72408;SDS011;60402;48.082;11.628;2023-09-18T12:00:21;6.07;;;1.52;;
72408;SDS011;60402;48.082;11.628;2023-09-18T12:03:16;5.53;;;1.63;;
72408;SDS011;60402;48.082;11.628;2023-09-18T12:06:12;6.55;;;1.35;;
72408;SDS011;60402;48.082;11.628;2023-09-18T12:08:58;5.60;;;1.40;;
72408;SDS011;60402;48.082;11.628;2023-09-18T12:11:44;5.30;;;1.13;;
72408;SDS011;60402;48.082;11.628;2023-09-18T12:14:32;4.20;;;1.23;;
72408;SDS011;60402;48.082;11.628;2023-09-18T12:17:18;4.63;;;1.20;;
72408;SDS011;60402;48.082;11.628;2023-09-18T12:20:04;4.00;;;1.25;;
72408;SDS011;60402;48.082;11.628;2023-09-18T12:22:51;3.30;;;1.08;;
72408;SDS011;60402;48.082;11.628;2023-09-18T12:25:38;5.28;;;1.20;;
72408;SDS011;60402;48.082;11.628;2023-09-18T12:28:24;5.07;;;1.10;;
72408;SDS011;60402;48.082;11.628;2023-09-18T12:31:14;5.10;;;1.08;;
72408;SDS011;60402;48.082;11.628;2023-09-18T12:34:01;4.97;;;1.20;;
72408;SDS011;60402;48.082;11.628;2023-09-18T12:36:47;5.60;;;1.08;;
72408;SDS011;60402;48.082;11.628;2023-09-18T12:39:33;3.75;;;1.10;;
72408;SDS011;60402;48.082;11.628;2023-09-18T12:42:19;6.22;;;1.40;;
72408;SDS011;60402;48.082;11.628;2023-09-18T12:45:06;5.10;;;1.10;;
72408;SDS011;60402;48.082;11.628;2023-09-18T12:47:56;4.60;;;0.95;;
72408;SDS011;60402;48.082;11.628;2023-09-18T12:50:43;7.55;;;0.90;;
72408;SDS011;60402;48.082;11.628;2023-09-18T12:53:29;2.50;;;0.75;;
72408;SDS011;60402;48.082;11.628;2023-09-18T12:56:14;2.85;;;0.90;;
72408;SDS011;60402;48.082;11.628;2023-09-18T12:59:00;2.97;;;0.80;;
72408;SDS011;60402;48.082;11.628;2023-09-18T13:01:46;2.63;;;1.10;;
72408;SDS011;60402;48.082;11.628;2023-09-18T13:04:34;1.73;;;0.82;;
72408;SDS011;60402;48.082;11.628;2023-09-18T13:07:22;2.17;;;0.73;;
72408;SDS011;60402;48.082;11.628;2023-09-18T13:10:09;2.38;;;0.73;;
72408;SDS011;60402;48.082;11.628;2023-09-18T13:12:55;2.63;;;0.82;;
72408;SDS011;60402;48.082;11.628;2023-09-18T13:15:41;1.90;;;0.70;;
72408;SDS011;60402;48.082;11.628;2023-09-18T13:18:27;4.45;;;1.00;;
72408;SDS011;60402;48.082;11.628;2023-09-18T13:21:13;3.78;;;0.73;;
72408;SDS011;60402;48.082;11.628;2023-09-18T13:24:04;1.42;;;0.68;;
72408;SDS011;60402;48.082;11.628;2023-09-18T13:26:52;1.50;;;0.68;;
72408;SDS011;60402;48.082;11.628;2023-09-18T13:29:38;2.50;;;0.90;;
72408;SDS011;60402;48.082;11.628;2023-09-18T13:32:24;3.15;;;0.70;;
72408;SDS011;60402;48.082;11.628;2023-09-18T13:35:10;3.85;;;0.88;;
72408;SDS011;60402;48.082;11.628;2023-09-18T13:37:57;2.00;;;0.70;;
72408;SDS011;60402;48.082;11.628;2023-09-18T13:40:43;2.97;;;1.05;;
72408;SDS011;60402;48.082;11.628;2023-09-18T13:43:31;4.45;;;0.90;;
72408;SDS011;60402;48.082;11.628;2023-09-18T13:46:20;1.77;;;0.68;;
72408;SDS011;60402;48.082;11.628;2023-09-18T13:49:05;2.35;;;0.70;;
72408;SDS011;60402;48.082;11.628;2023-09-18T13:51:51;2.80;;;0.90;;
72408;SDS011;60402;48.082;11.628;2023-09-18T13:54:37;3.70;;;0.80;;
72408;SDS011;60402;48.082;11.628;2023-09-18T13:57:22;2.28;;;0.90;;
72408;SDS011;60402;48.082;11.628;2023-09-18T14:00:09;4.00;;;0.85;;
72408;SDS011;60402;48.082;11.628;2023-09-18T14:02:57;3.90;;;0.75;;
72408;SDS011;60402;48.082;11.628;2023-09-18T14:05:43;1.63;;;0.70;;
72408;SDS011;60402;48.082;11.628;2023-09-18T14:08:31;1.23;;;0.57;;
72408;SDS011;60402;48.082;11.628;2023-09-18T14:11:17;1.52;;;0.75;;
72408;SDS011;60402;48.082;11.628;2023-09-18T14:14:03;1.90;;;0.90;;
72408;SDS011;60402;48.082;11.628;2023-09-18T14:16:49;5.07;;;0.93;;
72408;SDS011;60402;48.082;11.628;2023-09-18T14:19:39;2.17;;;0.73;;
72408;SDS011;60402;48.082;11.628;2023-09-18T14:22:24;2.30;;;0.90;;
72408;SDS011;60402;48.082;11.628;2023-09-18T14:25:11;2.80;;;0.88;;
72408;SDS011;60402;48.082;11.628;2023-09-18T14:27:57;2.28;;;0.82;;
72408;SDS011;60402;48.082;11.628;2023-09-18T14:30:43;2.70;;;0.60;;
72408;SDS011;60402;48.082;11.628;2023-09-18T14:33:29;1.80;;;0.52;;
72408;SDS011;60402;48.082;11.628;2023-09-18T14:36:14;2.88;;;0.77;;
72408;SDS011;60402;48.082;11.628;2023-09-18T14:39:00;2.22;;;0.60;;
72408;SDS011;60402;48.082;11.628;2023-09-18T14:41:46;4.47;;;0.90;;
72408;SDS011;60402;48.082;11.628;2023-09-18T14:44:33;2.42;;;0.82;;
72408;SDS011;60402;48.082;11.628;2023-09-18T14:47:18;1.85;;;0.60;;
72408;SDS011;60402;48.082;11.628;2023-09-18T14:50:05;1.52;;;0.60;;
72408;SDS011;60402;48.082;11.628;2023-09-18T14:52:51;2.95;;;0.68;;
72408;SDS011;60402;48.082;11.628;2023-09-18T14:55:36;2.00;;;0.93;;
72408;SDS011;60402;48.082;11.628;2023-09-18T14:58:22;0.80;;;0.40;;
72408;SDS011;60402;48.082;11.628;2023-09-18T15:01:09;1.95;;;0.52;;
72408;SDS011;60402;48.082;11.628;2023-09-18T15:03:55;1.58;;;0.60;;
72408;SDS011;60402;48.082;11.628;2023-09-18T15:06:40;1.02;;;0.50;;
72408;SDS011;60402;48.082;11.628;2023-09-18T15:09:26;1.15;;;0.60;;
72408;SDS011;60402;48.082;11.628;2023-09-18T15:12:12;2.55;;;0.60;;
72408;SDS011;60402;48.082;11.628;2023-09-18T15:14:57;1.42;;;0.50;;
72408;SDS011;60402;48.082;11.628;2023-09-18T15:17:43;1.42;;;0.60;;
72408;SDS011;60402;48.082;11.628;2023-09-18T15:20:28;1.15;;;0.60;;
72408;SDS011;60402;48.082;11.628;2023-09-18T15:23:14;3.05;;;0.60;;
72408;SDS011;60402;48.082;11.628;2023-09-18T15:26:01;1.23;;;0.60;;
72408;SDS011;60402;48.082;11.628;2023-09-18T15:28:46;1.15;;;0.60;;
72408;SDS011;60402;48.082;11.628;2023-09-18T15:31:32;3.03;;;1.05;;
72408;SDS011;60402;48.082;11.628;2023-09-18T15:34:19;2.72;;;0.75;;
72408;SDS011;60402;48.082;11.628;2023-09-18T15:37:04;1.88;;;0.50;;
72408;SDS011;60402;48.082;11.628;2023-09-18T15:39:50;2.03;;;0.60;;
72408;SDS011;60402;48.082;11.628;2023-09-18T15:42:36;2.97;;;0.43;;
72408;SDS011;60402;48.082;11.628;2023-09-18T15:45:23;2.25;;;0.70;;
72408;SDS011;60402;48.082;11.628;2023-09-18T15:48:09;3.58;;;0.93;;
72408;SDS011;60402;48.082;11.628;2023-09-18T15:50:54;2.92;;;0.68;;
72408;SDS011;60402;48.082;11.628;2023-09-18T15:53:40;1.70;;;0.52;;
72408;SDS011;60402;48.082;11.628;2023-09-18T15:56:26;1.85;;;0.68;;
72408;SDS011;60402;48.082;11.628;2023-09-18T15:59:11;1.35;;;0.60;;
72408;SDS011;60402;48.082;11.628;2023-09-18T16:01:57;2.42;;;0.75;;
72408;SDS011;60402;48.082;11.628;2023-09-18T16:04:42;2.95;;;0.70;;
72408;SDS011;60402;48.082;11.628;2023-09-18T16:07:28;2.55;;;0.60;;
72408;SDS011;60402;48.082;11.628;2023-09-18T16:10:14;2.45;;;0.70;;
72408;SDS011;60402;48.082;11.628;2023-09-18T16:13:00;3.03;;;0.65;;
72408;SDS011;60402;48.082;11.628;2023-09-18T16:15:46;2.90;;;0.70;;
72408;SDS011;60402;48.082;11.628;2023-09-18T16:18:31;5.22;;;0.80;;
72408;SDS011;60402;48.082;11.628;2023-09-18T16:21:17;3.08;;;0.63;;
72408;SDS011;60402;48.082;11.628;2023-09-18T16:24:03;3.30;;;0.73;;
72408;SDS011;60402;48.082;11.628;2023-09-18T16:26:53;3.20;;;0.52;;
72408;SDS011;60402;48.082;11.628;2023-09-18T16:29:39;4.07;;;0.85;;
72408;SDS011;60402;48.082;11.628;2023-09-18T16:32:28;2.42;;;0.77;;
72408;SDS011;60402;48.082;11.628;2023-09-18T16:35:14;3.38;;;1.08;;
72408;SDS011;60402;48.082;11.628;2023-09-18T16:38:00;4.85;;;0.80;;
72408;SDS011;60402;48.082;11.628;2023-09-18T16:40:46;2.03;;;0.80;;